KCEU

Oconee County Regional Airport

Clemson, South Carolina, USA
METAR KCEU 221519Z AUTO VRB06KT 10SM SCT019 25/19 A3016 RMK AO2 T02500194
Observed Flight Rules
May-22 @ 15:19 UTC (34 minutes ago) Visual Flight Rules
Wind Visibility Clouds
Variable at 6 knots 10 miles
  • Scattered at 1,900' AGL
Temperatures Readings
Current 25°C / 77°F
Dewpoint 19°C / 66°F
Humidity 69%
Altimeter 30.16" Hg
Pressure 1021 hPa
Elevation 268
METAR KCEU 221519Z AUTO VRB06KT 10SM SCT019 25/19 A3016 RMK AO2 T02500194
Observed Flight Rules
May-22 @ 15:19 UTC
(34 minutes ago)
VFR
Wind Visibility
Variable at 6 knots 10 miles
Clouds
  • Scattered at 1,900' AGL
Temperature Dewpoint
25°C / 77°F 19°C / 66°F
Humidity Altimeter Pressure
69% 30.16" Hg 1021 hPa